Time;durP1;ratioP1;P1;durP2;ratioP2;P2;SDS_P1;SDS_P2;PMS_P1;PMS_P2;Temp;Humidity;BMP_temperature;BMP_pressure;BME280_temperature;BME280_humidity;BME280_pressure;Samples;Min_cycle;Max_cycle;Signal;HPM_P1;HPM_P2
2022/02/05 00:00:32;;;;;;;18.15;9.07;;;;;;;;;;4375753;32;20066;-63
2022/02/05 00:03:27;;;;;;;17.80;9.88;;;;;;;;;;4362082;32;20158;-63
2022/02/05 00:06:01;;;;;;;16.27;8.98;;;;;;;;;;4363913;32;20160;-62
2022/02/05 00:19:42;;;;;;;19.00;8.40;;;;;;;;;;4379120;32;20081;-63
2022/02/05 00:41:11;;;;;;;16.35;8.02;;;;;;;;;;4341568;32;20090;-62
2022/02/05 00:43:39;;;;;;;14.98;8.35;;;;;;;;;;4352431;32;20429;-62
2022/02/05 00:46:07;;;;;;;14.43;7.35;;;;;;;;;;4377509;32;20069;-62
2022/02/05 00:48:34;;;;;;;17.58;8.73;;;;;;;;;;4365325;32;20159;-63
2022/02/05 00:51:12;;;;;;;17.92;8.20;;;;;;;;;;4365740;32;20082;-62
2022/02/05 00:53:41;;;;;;;14.30;7.85;;;;;;;;;;4366675;32;20492;-63
2022/02/05 00:56:24;;;;;;;14.93;8.23;;;;;;;;;;4378662;32;20074;-62
2022/02/05 00:58:50;;;;;;;14.27;7.32;;;;;;;;;;4373694;32;20092;-63
2022/02/05 01:01:17;;;;;;;15.23;7.95;;;;;;;;;;4386493;32;20158;-65
2022/02/05 01:03:43;;;;;;;16.17;7.60;;;;;;;;;;4377953;32;20141;-62
2022/02/05 01:06:10;;;;;;;15.32;7.87;;;;;;;;;;4364538;32;20516;-63
2022/02/05 01:08:38;;;;;;;18.92;8.20;;;;;;;;;;4351511;32;20082;-64
2022/02/05 01:11:05;;;;;;;18.60;8.32;;;;;;;;;;4363770;32;20155;-63
2022/02/05 01:13:33;;;;;;;13.70;7.75;;;;;;;;;;4351975;32;20453;-62
2022/02/05 01:16:18;;;;;;;18.05;9.00;;;;;;;;;;4377891;32;20066;-64
2022/02/05 01:18:46;;;;;;;15.98;8.68;;;;;;;;;;4363507;32;20085;-62
2022/02/05 01:21:34;;;;;;;16.60;8.65;;;;;;;;;;4376865;32;20105;-63
2022/02/05 01:24:04;;;;;;;13.88;8.27;;;;;;;;;;4377961;32;20066;-62
2022/02/05 01:26:37;;;;;;;14.93;8.55;;;;;;;;;;4377989;32;20162;-64
2022/02/05 01:29:16;;;;;;;17.77;9.80;;;;;;;;;;4363715;32;20100;-62
2022/02/05 01:31:49;;;;;;;15.35;8.50;;;;;;;;;;4363462;32;20508;-64
2022/02/05 01:34:27;;;;;;;14.68;8.43;;;;;;;;;;4363510;32;20086;-62
2022/02/05 01:51:04;;;;;;;19.02;8.80;;;;;;;;;;4375986;32;20078;-63
2022/02/05 01:59:24;;;;;;;15.35;8.25;;;;;;;;;;4366649;32;20210;-63
2022/02/05 02:04:54;;;;;;;15.57;8.63;;;;;;;;;;4376539;32;20078;-63
2022/02/05 02:10:40;;;;;;;16.50;9.07;;;;;;;;;;4376338;32;20062;-61
2022/02/05 02:18:49;;;;;;;13.15;8.50;;;;;;;;;;4362933;32;20066;-63
2022/02/05 02:24:11;;;;;;;18.48;9.23;;;;;;;;;;4375557;32;20425;-63
2022/02/05 02:29:06;;;;;;;13.10;7.47;;;;;;;;;;4375064;32;20541;-63
2022/02/05 02:31:39;;;;;;;14.13;7.82;;;;;;;;;;4376781;32;20092;-63
2022/02/05 02:34:09;;;;;;;15.25;8.45;;;;;;;;;;4363023;32;20082;-63
2022/02/05 02:39:17;;;;;;;14.93;8.23;;;;;;;;;;4376811;32;20078;-63
2022/02/05 02:41:56;;;;;;;14.10;8.00;;;;;;;;;;4375998;32;20100;-62
2022/02/05 02:44:23;;;;;;;16.85;7.80;;;;;;;;;;4363142;32;20147;-63
2022/02/05 02:46:49;;;;;;;14.43;8.13;;;;;;;;;;4378507;32;20108;-63
2022/02/05 02:49:22;;;;;;;17.25;8.18;;;;;;;;;;4376948;32;20061;-63
2022/02/05 02:57:23;;;;;;;18.10;8.80;;;;;;;;;;4366307;32;20554;-63
2022/02/05 02:59:56;;;;;;;15.40;9.25;;;;;;;;;;4351650;32;20147;-62
2022/02/05 03:02:25;;;;;;;15.73;8.07;;;;;;;;;;4362905;32;20108;-63
2022/02/05 03:04:55;;;;;;;15.63;8.73;;;;;;;;;;4362459;32;20109;-63
2022/02/05 03:07:26;;;;;;;18.00;8.90;;;;;;;;;;4374825;32;20074;-63
2022/02/05 03:09:55;;;;;;;16.42;8.38;;;;;;;;;;4375609;32;20073;-64
2022/02/05 03:12:22;;;;;;;13.93;7.93;;;;;;;;;;4362676;32;20066;-63
2022/02/05 03:14:51;;;;;;;15.73;8.15;;;;;;;;;;4362569;32;20081;-64
2022/02/05 03:17:20;;;;;;;15.23;8.27;;;;;;;;;;4376136;32;20171;-62
2022/02/05 03:19:49;;;;;;;14.02;7.68;;;;;;;;;;4376066;32;20097;-62
2022/02/05 03:22:21;;;;;;;12.05;7.15;;;;;;;;;;4362578;32;20280;-63
2022/02/05 03:24:48;;;;;;;16.87;7.22;;;;;;;;;;4375417;32;20082;-64
2022/02/05 03:27:16;;;;;;;12.98;7.28;;;;;;;;;;4362555;32;20077;-63
2022/02/05 03:29:47;;;;;;;15.52;8.43;;;;;;;;;;4375215;32;20152;-64
2022/02/05 03:32:15;;;;;;;14.57;8.18;;;;;;;;;;4350577;32;20074;-63
2022/02/05 03:34:41;;;;;;;11.80;7.12;;;;;;;;;;4362166;32;20062;-62
2022/02/05 03:37:08;;;;;;;12.02;7.03;;;;;;;;;;4362349;32;20147;-62
2022/02/05 03:39:35;;;;;;;14.35;7.62;;;;;;;;;;4375993;32;20069;-62
2022/02/05 03:42:02;;;;;;;11.65;6.70;;;;;;;;;;4377433;32;20158;-63
2022/02/05 03:44:29;;;;;;;15.60;7.68;;;;;;;;;;4365012;32;20463;-63
2022/02/05 03:46:56;;;;;;;11.65;7.12;;;;;;;;;;4378905;32;20078;-63
2022/02/05 03:49:23;;;;;;;10.82;6.55;;;;;;;;;;4365154;32;20514;-63
2022/02/05 03:51:50;;;;;;;13.38;7.25;;;;;;;;;;4353047;32;20154;-62
2022/02/05 03:54:19;;;;;;;13.48;7.40;;;;;;;;;;4365116;32;20085;-63
2022/02/05 03:56:49;;;;;;;14.27;7.32;;;;;;;;;;4364988;32;20139;-62
2022/02/05 03:59:16;;;;;;;13.50;7.45;;;;;;;;;;4378825;32;20107;-63
2022/02/05 04:01:43;;;;;;;13.90;8.00;;;;;;;;;;4377474;32;20081;-63
2022/02/05 04:04:10;;;;;;;11.52;6.93;;;;;;;;;;4365002;32;20508;-63
2022/02/05 04:06:37;;;;;;;12.57;6.90;;;;;;;;;;4378651;32;20186;-63
2022/02/05 04:09:14;;;;;;;10.93;7.25;;;;;;;;;;4378895;32;20070;-62
2022/02/05 04:11:59;;;;;;;13.75;7.30;;;;;;;;;;4365249;32;20153;-63
2022/02/05 04:17:11;;;;;;;11.95;7.05;;;;;;;;;;4364889;32;20078;-63
2022/02/05 04:19:38;;;;;;;13.20;7.62;;;;;;;;;;4378379;32;20171;-64
2022/02/05 04:22:05;;;;;;;12.13;7.60;;;;;;;;;;4352333;32;20078;-63
2022/02/05 04:24:32;;;;;;;12.48;6.85;;;;;;;;;;4352183;32;20166;-63
2022/02/05 04:26:59;;;;;;;12.27;7.07;;;;;;;;;;4376841;32;20094;-62
2022/02/05 04:29:25;;;;;;;11.75;7.12;;;;;;;;;;4364382;32;20162;-63
2022/02/05 04:31:52;;;;;;;10.82;6.90;;;;;;;;;;4376968;32;20437;-63
2022/02/05 04:34:19;;;;;;;14.15;7.78;;;;;;;;;;4364636;32;20094;-63
2022/02/05 04:36:45;;;;;;;14.35;7.95;;;;;;;;;;4364284;32;20082;-63
2022/02/05 04:39:16;;;;;;;14.15;7.53;;;;;;;;;;4378186;32;20181;-62
2022/02/05 04:41:50;;;;;;;11.32;7.28;;;;;;;;;;4352212;32;20061;-63
2022/02/05 04:44:47;;;;;;;14.13;8.07;;;;;;;;;;4378186;32;20084;-63
2022/02/05 05:02:49;;;;;;;12.43;7.50;;;;;;;;;;4377835;32;20089;-62
2022/02/05 05:13:13;;;;;;;12.85;7.32;;;;;;;;;;4376633;32;20071;-63
2022/02/05 05:21:11;;;;;;;13.43;7.45;;;;;;;;;;4376710;32;20092;-63
2022/02/05 05:23:38;;;;;;;11.73;6.95;;;;;;;;;;4377079;32;20086;-62
2022/02/05 05:26:04;;;;;;;13.30;7.03;;;;;;;;;;4376151;32;20074;-63
2022/02/05 05:28:32;;;;;;;17.02;7.50;;;;;;;;;;4363709;32;20104;-62
2022/02/05 05:30:58;;;;;;;11.88;7.45;;;;;;;;;;4376452;32;20112;-63
2022/02/05 05:33:25;;;;;;;13.48;7.68;;;;;;;;;;4363726;32;20468;-64
2022/02/05 05:35:52;;;;;;;15.82;5.82;;;;;;;;;;4363834;32;20090;-64
2022/02/05 05:38:18;;;;;;;11.73;5.78;;;;;;;;;;4363818;32;20512;-63
2022/02/05 05:40:45;;;;;;;10.60;5.87;;;;;;;;;;4363715;32;20086;-62
2022/02/05 05:43:58;;;;;;;10.35;5.57;;;;;;;;;;4363664;32;20074;-63
2022/02/05 05:48:57;;;;;;;14.38;7.78;;;;;;;;;;4376225;32;20066;-63
2022/02/05 05:51:24;;;;;;;9.63;6.70;;;;;;;;;;4376107;32;20082;-63
2022/02/05 05:53:51;;;;;;;11.30;5.93;;;;;;;;;;4363737;32;20578;-63
2022/02/05 05:56:22;;;;;;;10.95;6.18;;;;;;;;;;4375542;32;20448;-63
2022/02/05 05:58:48;;;;;;;9.68;6.03;;;;;;;;;;4375567;32;20086;-64
2022/02/05 06:01:15;;;;;;;12.90;6.78;;;;;;;;;;4363021;32;20081;-63
2022/02/05 06:03:42;;;;;;;11.32;7.03;;;;;;;;;;4374986;32;20142;-63
2022/02/05 06:06:09;;;;;;;10.32;6.35;;;;;;;;;;4375802;32;20081;-63
2022/02/05 06:08:35;;;;;;;9.68;6.28;;;;;;;;;;4376933;32;20445;-62
2022/02/05 06:11:02;;;;;;;10.60;6.93;;;;;;;;;;4363215;32;20096;-63
2022/02/05 06:13:30;;;;;;;13.02;8.07;;;;;;;;;;4363195;32;20078;-62
2022/02/05 06:15:58;;;;;;;16.52;9.63;;;;;;;;;;4377138;32;20156;-62
2022/02/05 06:18:25;;;;;;;18.48;9.10;;;;;;;;;;4362771;32;20464;-62
2022/02/05 06:20:52;;;;;;;14.25;8.35;;;;;;;;;;4350285;32;20077;-63
2022/02/05 06:23:18;;;;;;;16.42;8.68;;;;;;;;;;4362896;32;20116;-63
2022/02/05 06:25:45;;;;;;;16.50;8.23;;;;;;;;;;4377038;32;20101;-62
2022/02/05 06:28:14;;;;;;;16.77;8.70;;;;;;;;;;4362791;32;20526;-62
2022/02/05 06:30:42;;;;;;;14.90;8.50;;;;;;;;;;4375654;32;20089;-62
2022/02/05 06:33:09;;;;;;;14.93;9.05;;;;;;;;;;4375351;32;20464;-63
2022/02/05 06:35:35;;;;;;;15.30;8.52;;;;;;;;;;4362723;32;20088;-63
2022/02/05 06:38:02;;;;;;;15.60;8.82;;;;;;;;;;4362657;32;20515;-62
2022/02/05 06:40:29;;;;;;;16.62;9.02;;;;;;;;;;4376467;32;20452;-63
2022/02/05 06:42:56;;;;;;;17.33;9.70;;;;;;;;;;4376384;32;20496;-63
2022/02/05 06:45:22;;;;;;;17.17;9.38;;;;;;;;;;4377003;32;20079;-63
2022/02/05 06:47:49;;;;;;;12.50;8.88;;;;;;;;;;4377172;32;20082;-62
2022/02/05 06:50:16;;;;;;;15.57;9.77;;;;;;;;;;4362766;32;20082;-62
2022/02/05 06:52:43;;;;;;;15.40;9.07;;;;;;;;;;4362978;32;20082;-62
2022/02/05 06:55:11;;;;;;;20.27;10.07;;;;;;;;;;4362797;32;20088;-62
2022/02/05 06:57:38;;;;;;;17.83;10.82;;;;;;;;;;4375230;32;20070;-62
2022/02/05 07:00:07;;;;;;;21.08;12.32;;;;;;;;;;4362545;32;20082;-62
2022/02/05 07:02:34;;;;;;;21.92;12.35;;;;;;;;;;4362295;32;20163;-62
2022/02/05 07:05:01;;;;;;;23.45;13.38;;;;;;;;;;4362370;32;20086;-62
2022/02/05 07:07:27;;;;;;;27.52;12.60;;;;;;;;;;4362355;32;20461;-62
2022/02/05 07:09:54;;;;;;;24.67;13.18;;;;;;;;;;4374755;32;20066;-62
2022/02/05 07:12:21;;;;;;;24.25;13.07;;;;;;;;;;4362534;32;20093;-61
2022/02/05 07:17:35;;;;;;;22.87;13.27;;;;;;;;;;4374865;32;20130;-63
2022/02/05 07:20:36;;;;;;;26.90;15.15;;;;;;;;;;4375639;32;20163;-62
2022/02/05 07:31:14;;;;;;;25.45;13.48;;;;;;;;;;4362773;32;20083;-63
2022/02/05 07:33:41;;;;;;;27.85;14.75;;;;;;;;;;4362527;32;20074;-61
2022/02/05 07:36:08;;;;;;;28.42;15.02;;;;;;;;;;4374801;32;20082;-62
2022/02/05 07:38:35;;;;;;;25.33;13.38;;;;;;;;;;4349891;32;20132;-62
2022/02/05 07:41:01;;;;;;;26.23;13.60;;;;;;;;;;4376106;32;20493;-62
2022/02/05 07:43:34;;;;;;;24.42;13.55;;;;;;;;;;4362201;32;20179;-61
2022/02/05 07:46:02;;;;;;;34.13;15.10;;;;;;;;;;4362677;32;20075;-62
2022/02/05 07:48:29;;;;;;;23.73;13.55;;;;;;;;;;4374812;32;20089;-68
2022/02/05 07:50:56;;;;;;;28.30;14.20;;;;;;;;;;4362202;32;20173;-62
2022/02/05 07:53:23;;;;;;;25.20;14.05;;;;;;;;;;4362904;32;20067;-63
2022/02/05 07:55:51;;;;;;;21.75;11.90;;;;;;;;;;4375284;32;20078;-62
2022/02/05 07:58:17;;;;;;;24.63;13.48;;;;;;;;;;4374233;32;20104;-62
2022/02/05 08:00:44;;;;;;;23.05;12.57;;;;;;;;;;4362130;32;20073;-62
2022/02/05 08:03:11;;;;;;;25.80;12.07;;;;;;;;;;4349474;32;20086;-62
2022/02/05 08:05:37;;;;;;;17.15;8.27;;;;;;;;;;4374494;32;20077;-62
2022/02/05 08:08:08;;;;;;;23.80;10.80;;;;;;;;;;4375942;32;20062;-62
2022/02/05 08:10:38;;;;;;;21.67;10.45;;;;;;;;;;4361914;32;20497;-63
2022/02/05 08:13:05;;;;;;;20.48;10.95;;;;;;;;;;4374808;32;20066;-62
2022/02/05 08:15:32;;;;;;;21.20;12.68;;;;;;;;;;4362141;32;20454;-63
2022/02/05 08:17:59;;;;;;;26.33;12.80;;;;;;;;;;4375808;32;20070;-62
2022/02/05 08:20:25;;;;;;;25.55;12.50;;;;;;;;;;4361706;32;20173;-63
2022/02/05 08:22:52;;;;;;;24.33;12.45;;;;;;;;;;4361841;32;20082;-62
2022/02/05 08:25:19;;;;;;;23.17;11.93;;;;;;;;;;4361927;32;20077;-62
2022/02/05 08:27:46;;;;;;;24.37;12.52;;;;;;;;;;4376810;32;20066;-63
2022/02/05 08:30:14;;;;;;;20.27;12.43;;;;;;;;;;4377057;32;20082;-62
2022/02/05 08:32:43;;;;;;;24.45;12.50;;;;;;;;;;4364585;32;20173;-62
2022/02/05 08:35:10;;;;;;;21.62;11.93;;;;;;;;;;4378239;32;20078;-63
2022/02/05 08:37:45;;;;;;;21.80;11.77;;;;;;;;;;4377213;32;20546;-63
2022/02/05 08:40:12;;;;;;;23.42;12.18;;;;;;;;;;4364634;32;20078;-62
2022/02/05 08:42:39;;;;;;;22.48;12.13;;;;;;;;;;4376709;32;20082;-62
2022/02/05 08:45:06;;;;;;;27.23;13.32;;;;;;;;;;4364521;32;20073;-63
2022/02/05 08:47:34;;;;;;;22.30;13.32;;;;;;;;;;4364885;32;20084;-62
2022/02/05 08:50:00;;;;;;;24.92;11.93;;;;;;;;;;4378325;32;20077;-63
2022/02/05 08:52:28;;;;;;;18.87;10.63;;;;;;;;;;4364186;32;20082;-64
2022/02/05 08:54:57;;;;;;;20.27;10.77;;;;;;;;;;4378381;32;20456;-62
2022/02/05 08:57:24;;;;;;;20.35;10.90;;;;;;;;;;4364582;32;20166;-63
2022/02/05 08:59:56;;;;;;;18.52;11.45;;;;;;;;;;4365277;32;20082;-63
2022/02/05 09:02:47;;;;;;;19.60;9.95;;;;;;;;;;4378137;32;20151;-62
2022/02/05 09:05:19;;;;;;;16.25;9.93;;;;;;;;;;4377124;32;20141;-64
2022/02/05 09:07:47;;;;;;;17.20;10.63;;;;;;;;;;4376707;32;20081;-63
2022/02/05 09:10:36;;;;;;;16.62;9.82;;;;;;;;;;4364173;32;20082;-64
2022/02/05 09:13:14;;;;;;;20.00;10.40;;;;;;;;;;4364326;32;20183;-62
2022/02/05 09:15:41;;;;;;;19.52;10.25;;;;;;;;;;4363963;32;20085;-62
2022/02/05 09:18:07;;;;;;;18.95;10.15;;;;;;;;;;4376279;32;20094;-64
2022/02/05 09:20:34;;;;;;;19.77;11.10;;;;;;;;;;4376385;32;20493;-62
2022/02/05 09:23:01;;;;;;;19.67;10.07;;;;;;;;;;4377022;32;20071;-63
2022/02/05 09:25:29;;;;;;;17.98;10.55;;;;;;;;;;4364083;32;20082;-63
2022/02/05 09:27:56;;;;;;;18.17;9.65;;;;;;;;;;4351256;32;20493;-63
2022/02/05 09:30:31;;;;;;;16.12;9.65;;;;;;;;;;4376515;32;20109;-62
2022/02/05 09:32:58;;;;;;;16.92;9.68;;;;;;;;;;4363547;32;20507;-62
2022/02/05 09:35:24;;;;;;;20.45;9.75;;;;;;;;;;4377789;32;20086;-63
2022/02/05 09:37:51;;;;;;;15.80;10.00;;;;;;;;;;4351388;32;20082;-63
2022/02/05 09:40:18;;;;;;;15.23;8.98;;;;;;;;;;4363499;32;20532;-64
2022/02/05 09:42:46;;;;;;;18.35;10.30;;;;;;;;;;4363498;32;20078;-63
2022/02/05 09:45:13;;;;;;;16.42;9.60;;;;;;;;;;4363348;32;20120;-64
2022/02/05 09:47:40;;;;;;;16.90;9.85;;;;;;;;;;4376070;32;20097;-62
2022/02/05 09:50:07;;;;;;;17.15;9.70;;;;;;;;;;4363574;32;20082;-63
2022/02/05 09:52:34;;;;;;;18.25;9.85;;;;;;;;;;4377538;32;20085;-64
2022/02/05 09:55:00;;;;;;;16.30;9.70;;;;;;;;;;4376232;32;20085;-63
2022/02/05 09:57:27;;;;;;;17.20;9.95;;;;;;;;;;4377011;32;20526;-62
2022/02/05 09:59:57;;;;;;;17.65;9.82;;;;;;;;;;4376753;32;20081;-63
2022/02/05 10:02:28;;;;;;;17.40;10.57;;;;;;;;;;4363596;32;20089;-63
2022/02/05 10:05:16;;;;;;;21.87;10.50;;;;;;;;;;4363703;32;20078;-63
2022/02/05 10:08:07;;;;;;;16.08;9.25;;;;;;;;;;4363790;32;20170;-63
2022/02/05 10:10:47;;;;;;;17.75;9.13;;;;;;;;;;4375420;32;20105;-63
2022/02/05 10:13:18;;;;;;;16.48;9.50;;;;;;;;;;4363153;32;20074;-63
2022/02/05 10:15:51;;;;;;;16.37;9.02;;;;;;;;;;4363398;32;20151;-63
2022/02/05 10:18:36;;;;;;;14.90;8.80;;;;;;;;;;4375524;32;20077;-63
2022/02/05 10:21:23;;;;;;;13.77;8.68;;;;;;;;;;4363376;32;20090;-64
2022/02/05 10:24:08;;;;;;;13.57;8.40;;;;;;;;;;4375192;32;20181;-63
2022/02/05 10:26:37;;;;;;;15.02;8.82;;;;;;;;;;4375588;32;20240;-63
2022/02/05 10:29:15;;;;;;;15.90;8.93;;;;;;;;;;4362870;32;20069;-63
2022/02/05 10:31:59;;;;;;;18.02;9.15;;;;;;;;;;4362697;32;20158;-63
2022/02/05 10:34:28;;;;;;;14.95;8.95;;;;;;;;;;4363044;32;20062;-63
2022/02/05 10:37:28;;;;;;;16.60;9.32;;;;;;;;;;4363152;32;20523;-66
2022/02/05 10:45:14;;;;;;;16.10;9.02;;;;;;;;;;4375588;32;20134;-63
2022/02/05 10:47:55;;;;;;;16.35;9.20;;;;;;;;;;4362584;32;20094;-62
2022/02/05 10:50:29;;;;;;;13.90;8.35;;;;;;;;;;4362736;32;20497;-63
2022/02/05 10:53:07;;;;;;;14.50;9.02;;;;;;;;;;4350231;32;20063;-63
2022/02/05 10:55:48;;;;;;;15.05;8.25;;;;;;;;;;4375555;32;20085;-62
2022/02/05 11:07:20;;;;;;;15.57;9.40;;;;;;;;;;4364831;32;20097;-65
2022/02/05 11:09:53;;;;;;;18.40;10.95;;;;;;;;;;4376831;32;20198;-64
2022/02/05 11:20:12;;;;;;;15.55;8.95;;;;;;;;;;4362838;32;20097;-63
2022/02/05 11:22:51;;;;;;;15.23;8.50;;;;;;;;;;4376530;32;20085;-64
2022/02/05 11:25:20;;;;;;;14.55;8.70;;;;;;;;;;4375925;32;20513;-63
2022/02/05 11:27:52;;;;;;;16.37;9.02;;;;;;;;;;4361881;32;20617;-63
2022/02/05 11:30:28;;;;;;;18.42;9.90;;;;;;;;;;4376621;32;20089;-62
2022/02/05 11:33:06;;;;;;;18.08;9.60;;;;;;;;;;4350118;32;20074;-63
2022/02/05 11:38:10;;;;;;;15.88;9.23;;;;;;;;;;4374495;32;20132;-63
2022/02/05 11:40:52;;;;;;;17.17;8.73;;;;;;;;;;4375966;32;20512;-62
2022/02/05 11:43:21;;;;;;;18.10;10.13;;;;;;;;;;4362075;32;20077;-63
2022/02/05 11:46:09;;;;;;;19.65;10.23;;;;;;;;;;4361944;32;20071;-62
2022/02/05 11:48:45;;;;;;;19.62;10.52;;;;;;;;;;4376291;32;20086;-62
2022/02/05 11:51:15;;;;;;;16.60;9.80;;;;;;;;;;4362393;32;20076;-63
2022/02/05 11:54:00;;;;;;;17.30;10.60;;;;;;;;;;4375026;32;20162;-63
2022/02/05 11:56:50;;;;;;;16.35;9.63;;;;;;;;;;4362506;32;20141;-62
2022/02/05 11:59:22;;;;;;;19.05;10.70;;;;;;;;;;4375948;32;20081;-62
2022/02/05 12:01:49;;;;;;;18.75;10.65;;;;;;;;;;4375544;32;20074;-63
2022/02/05 12:04:22;;;;;;;19.25;10.05;;;;;;;;;;4378929;32;20062;-66
2022/02/05 12:07:06;;;;;;;15.48;9.07;;;;;;;;;;4364790;32;20163;-63
2022/02/05 12:09:44;;;;;;;16.92;9.95;;;;;;;;;;4378648;32;20479;-62
2022/02/05 12:12:27;;;;;;;15.77;9.35;;;;;;;;;;4365163;32;20496;-62
2022/02/05 12:15:16;;;;;;;15.50;8.73;;;;;;;;;;4379058;32;20051;-63
2022/02/05 12:18:00;;;;;;;14.77;7.70;;;;;;;;;;4364849;32;20149;-64
2022/02/05 12:20:31;;;;;;;15.18;8.27;;;;;;;;;;4352021;32;20472;-63
2022/02/05 12:23:01;;;;;;;13.13;8.02;;;;;;;;;;4377152;32;20441;-63
2022/02/05 12:25:27;;;;;;;13.13;8.45;;;;;;;;;;4364726;32;20223;-63
2022/02/05 12:27:54;;;;;;;15.48;8.55;;;;;;;;;;4376861;32;20105;-63
2022/02/05 12:30:27;;;;;;;13.68;8.45;;;;;;;;;;4378201;32;20065;-63
2022/02/05 12:32:54;;;;;;;15.35;9.32;;;;;;;;;;4364700;32;20069;-63
2022/02/05 12:35:21;;;;;;;17.12;9.07;;;;;;;;;;4364536;32;20501;-62
2022/02/05 12:37:48;;;;;;;16.12;8.50;;;;;;;;;;4378414;32;20093;-68
2022/02/05 12:40:15;;;;;;;14.40;8.43;;;;;;;;;;4378246;32;20074;-64
2022/02/05 12:42:51;;;;;;;17.10;10.65;;;;;;;;;;4352419;32;20173;-63
2022/02/05 12:45:24;;;;;;;17.15;9.43;;;;;;;;;;4364358;32;20154;-62
2022/02/05 12:47:51;;;;;;;14.55;8.98;;;;;;;;;;4364262;32;20075;-63
2022/02/05 12:50:19;;;;;;;19.62;10.93;;;;;;;;;;4378074;32;20093;-63
2022/02/05 12:52:50;;;;;;;20.80;10.60;;;;;;;;;;4363851;32;20085;-62
2022/02/05 12:55:24;;;;;;;17.58;10.52;;;;;;;;;;4363947;32;20066;-63
2022/02/05 12:58:01;;;;;;;18.90;11.38;;;;;;;;;;4364802;32;20074;-63
2022/02/05 13:00:28;;;;;;;19.17;10.82;;;;;;;;;;4364075;32;20092;-63
2022/02/05 13:02:55;;;;;;;19.80;11.00;;;;;;;;;;4376203;32;20082;-63
2022/02/05 13:05:34;;;;;;;19.10;10.80;;;;;;;;;;4363622;32;20103;-64
2022/02/05 13:08:01;;;;;;;20.30;11.07;;;;;;;;;;4364479;32;20151;-64
2022/02/05 13:10:45;;;;;;;19.45;11.70;;;;;;;;;;4377703;32;20078;-64
2022/02/05 13:13:13;;;;;;;21.52;11.45;;;;;;;;;;4363698;32;20539;-63
2022/02/05 13:15:39;;;;;;;19.70;11.70;;;;;;;;;;4376151;32;20085;-63
2022/02/05 13:26:23;;;;;;;14.90;9.48;;;;;;;;;;4376849;32;20445;-63
2022/02/05 13:34:27;;;;;;;16.67;9.43;;;;;;;;;;4376727;32;20165;-63
2022/02/05 13:39:56;;;;;;;16.35;9.30;;;;;;;;;;4363545;32;20085;-64
2022/02/05 13:42:27;;;;;;;15.10;9.07;;;;;;;;;;4376897;32;20078;-63
2022/02/05 13:45:01;;;;;;;14.00;8.50;;;;;;;;;;4376080;32;20081;-63
2022/02/05 13:47:33;;;;;;;14.87;8.65;;;;;;;;;;4364029;32;20085;-64
2022/02/05 13:50:00;;;;;;;13.45;8.38;;;;;;;;;;4351225;32;20509;-62
2022/02/05 13:52:46;;;;;;;14.93;8.02;;;;;;;;;;4378091;32;20086;-63
2022/02/05 13:55:15;;;;;;;13.10;7.80;;;;;;;;;;4351585;32;20074;-64
2022/02/05 13:58:01;;;;;;;15.38;8.75;;;;;;;;;;4377821;32;20151;-62
2022/02/05 14:00:48;;;;;;;15.47;9.17;;;;;;;;;;4351868;32;20585;-63
2022/02/05 14:03:37;;;;;;;16.05;8.32;;;;;;;;;;4363991;32;20089;-62
2022/02/05 14:06:12;;;;;;;14.80;8.45;;;;;;;;;;4377396;32;20077;-63
2022/02/05 14:08:52;;;;;;;13.20;8.35;;;;;;;;;;4375774;32;20078;-63
2022/02/05 14:11:32;;;;;;;16.00;9.05;;;;;;;;;;4363090;32;20070;-62
2022/02/05 14:14:00;;;;;;;16.77;9.23;;;;;;;;;;4363313;32;20086;-62
2022/02/05 14:16:36;;;;;;;14.55;8.00;;;;;;;;;;4363353;32;20062;-62
2022/02/05 14:19:05;;;;;;;14.63;8.55;;;;;;;;;;4375002;32;20094;-63
2022/02/05 14:21:42;;;;;;;17.35;9.55;;;;;;;;;;4362774;32;20070;-63
2022/02/05 14:24:40;;;;;;;14.50;8.77;;;;;;;;;;4375075;32;20071;-63
2022/02/05 14:27:08;;;;;;;;;;;;;;;;;;4350558;32;20165;-64
2022/02/05 14:29:44;;;;;;;17.08;9.77;;;;;;;;;;4350749;32;19962;-63
2022/02/05 14:32:51;;;;;;;17.10;9.43;;;;;;;;;;4362556;32;20465;-63
2022/02/05 14:35:22;;;;;;;16.17;8.80;;;;;;;;;;4373679;32;20070;-63
2022/02/05 14:43:07;;;;;;;16.67;8.20;;;;;;;;;;4376834;32;20089;-63
2022/02/05 14:45:33;;;;;;;15.60;9.63;;;;;;;;;;4375227;32;20097;-63
2022/02/05 14:48:00;;;;;;;16.17;8.68;;;;;;;;;;4374917;32;20073;-65
2022/02/05 14:50:27;;;;;;;17.40;9.43;;;;;;;;;;4375242;32;20525;-64
2022/02/05 14:52:54;;;;;;;17.25;9.10;;;;;;;;;;4362299;32;20473;-63
2022/02/05 14:55:21;;;;;;;18.15;9.27;;;;;;;;;;4362795;32;20093;-63
2022/02/05 14:57:48;;;;;;;16.90;9.85;;;;;;;;;;4376007;32;20154;-63
2022/02/05 15:00:15;;;;;;;18.00;11.07;;;;;;;;;;4374619;32;20155;-64
2022/02/05 15:02:42;;;;;;;19.92;10.30;;;;;;;;;;4362616;32;20538;-62
2022/02/05 15:05:12;;;;;;;18.55;10.32;;;;;;;;;;4349895;32;20136;-64
2022/02/05 15:07:40;;;;;;;17.15;8.98;;;;;;;;;;4362192;32;20195;-63
2022/02/05 15:10:09;;;;;;;20.55;10.68;;;;;;;;;;4350052;32;20093;-63
2022/02/05 15:12:37;;;;;;;16.10;10.05;;;;;;;;;;4362229;32;20074;-63
2022/02/05 15:15:13;;;;;;;17.50;10.82;;;;;;;;;;4362464;32;20488;-64
2022/02/05 15:17:43;;;;;;;19.92;9.88;;;;;;;;;;4362436;32;20101;-62
2022/02/05 15:20:11;;;;;;;20.00;10.55;;;;;;;;;;4362056;32;20086;-63
2022/02/05 15:22:38;;;;;;;20.17;11.45;;;;;;;;;;4362558;32;20074;-63
2022/02/05 15:25:05;;;;;;;18.12;10.65;;;;;;;;;;4375096;32;20433;-64
2022/02/05 15:27:32;;;;;;;21.15;11.18;;;;;;;;;;4374874;32;20082;-63
2022/02/05 15:29:59;;;;;;;18.55;10.35;;;;;;;;;;4374723;32;20082;-63
2022/02/05 15:32:26;;;;;;;17.98;10.38;;;;;;;;;;4376177;32;20101;-63
2022/02/05 15:34:52;;;;;;;20.42;10.90;;;;;;;;;;4362408;32;20086;-64
2022/02/05 15:37:23;;;;;;;21.73;10.90;;;;;;;;;;4364621;32;20460;-64
2022/02/05 15:45:08;;;;;;;21.17;12.05;;;;;;;;;;4365196;32;20087;-62
2022/02/05 15:47:35;;;;;;;22.27;11.32;;;;;;;;;;4379021;32;20611;-63
2022/02/05 15:50:02;;;;;;;20.73;11.55;;;;;;;;;;4377932;32;20067;-62
2022/02/05 15:52:28;;;;;;;22.77;12.43;;;;;;;;;;4377919;32;20567;-63
2022/02/05 15:54:58;;;;;;;23.65;11.27;;;;;;;;;;4365133;32;20101;-64
2022/02/05 15:57:36;;;;;;;20.40;11.65;;;;;;;;;;4365065;32;20147;-64
2022/02/05 16:00:27;;;;;;;20.62;12.45;;;;;;;;;;4365604;32;20094;-62
2022/02/05 16:02:55;;;;;;;20.90;10.70;;;;;;;;;;4378680;32;20070;-63
2022/02/05 16:05:21;;;;;;;21.90;11.35;;;;;;;;;;4364651;32;20074;-62
2022/02/05 16:07:48;;;;;;;18.10;9.82;;;;;;;;;;4378539;32;20101;-63
2022/02/05 16:10:15;;;;;;;22.70;11.48;;;;;;;;;;4364601;32;20085;-63
2022/02/05 16:12:44;;;;;;;23.45;11.68;;;;;;;;;;4364947;32;20065;-63
2022/02/05 16:15:11;;;;;;;20.50;11.85;;;;;;;;;;4377703;32;20467;-64
2022/02/05 16:17:38;;;;;;;19.08;11.98;;;;;;;;;;4378692;32;20147;-62
2022/02/05 16:20:05;;;;;;;19.02;11.35;;;;;;;;;;4364151;32;20085;-63
2022/02/05 16:22:37;;;;;;;19.65;11.57;;;;;;;;;;4364721;32;20066;-63
2022/02/05 16:25:05;;;;;;;19.33;11.00;;;;;;;;;;4377071;32;20078;-63
2022/02/05 16:27:36;;;;;;;20.90;11.40;;;;;;;;;;4376968;32;20082;-62
2022/02/05 16:30:06;;;;;;;21.35;11.55;;;;;;;;;;4377351;32;20102;-62
2022/02/05 16:32:37;;;;;;;22.98;12.10;;;;;;;;;;4376821;32;20166;-63
2022/02/05 16:35:09;;;;;;;20.98;12.23;;;;;;;;;;4364175;32;20082;-62
2022/02/05 16:37:38;;;;;;;21.33;11.50;;;;;;;;;;4351964;32;20147;-63
2022/02/05 16:40:10;;;;;;;17.80;10.48;;;;;;;;;;4378084;32;20078;-63
2022/02/05 16:42:38;;;;;;;20.55;11.45;;;;;;;;;;4364724;32;20109;-62
2022/02/05 16:45:06;;;;;;;22.87;11.30;;;;;;;;;;4376512;32;20066;-62
2022/02/05 16:47:33;;;;;;;21.30;11.73;;;;;;;;;;4377772;32;20086;-64
2022/02/05 16:49:59;;;;;;;21.50;10.43;;;;;;;;;;4364889;32;20440;-63
2022/02/05 16:52:29;;;;;;;19.05;11.05;;;;;;;;;;4351744;32;20465;-63
2022/02/05 16:54:57;;;;;;;19.92;11.48;;;;;;;;;;4352055;32;20101;-64
2022/02/05 16:57:24;;;;;;;18.98;10.07;;;;;;;;;;4364178;32;20077;-64
2022/02/05 16:59:50;;;;;;;18.42;9.52;;;;;;;;;;4376735;32;20151;-63
2022/02/05 17:02:17;;;;;;;17.30;10.00;;;;;;;;;;4364045;32;20088;-63
2022/02/05 17:04:44;;;;;;;23.48;13.13;;;;;;;;;;4377613;32;20460;-63
2022/02/05 17:07:10;;;;;;;31.62;19.30;;;;;;;;;;4363654;32;20102;-63
2022/02/05 17:09:42;;;;;;;20.08;10.85;;;;;;;;;;4377846;32;20105;-64
2022/02/05 17:12:12;;;;;;;22.13;12.80;;;;;;;;;;4363895;32;20066;-63
2022/02/05 17:14:39;;;;;;;18.30;10.48;;;;;;;;;;4363600;32;20082;-63
2022/02/05 17:17:12;;;;;;;18.67;10.60;;;;;;;;;;4377825;32;20086;-66
2022/02/05 17:19:42;;;;;;;20.15;10.98;;;;;;;;;;4377368;32;20097;-63
2022/02/05 17:22:09;;;;;;;20.05;10.75;;;;;;;;;;4376862;32;20148;-63
2022/02/05 17:24:37;;;;;;;19.70;10.07;;;;;;;;;;4377667;32;20159;-64
2022/02/05 17:27:04;;;;;;;17.33;8.93;;;;;;;;;;4364665;32;20086;-63
2022/02/05 17:29:35;;;;;;;19.20;8.50;;;;;;;;;;4378529;32;20074;-63
2022/02/05 17:32:06;;;;;;;16.08;9.02;;;;;;;;;;4377336;32;20151;-63
2022/02/05 17:34:41;;;;;;;16.37;8.73;;;;;;;;;;4363721;32;20159;-64
2022/02/05 17:37:08;;;;;;;21.60;9.55;;;;;;;;;;4376301;32;20078;-63
2022/02/05 17:39:37;;;;;;;17.73;9.23;;;;;;;;;;4363648;32;20082;-63